Time;durP1;ratioP1;P1;durP2;ratioP2;P2;SDS_P1;SDS_P2;PMS_P1;PMS_P2;Temp;Humidity;BMP_temperature;BMP_pressure;BME280_temperature;BME280_humidity;BME280_pressure;Samples;Min_cycle;Max_cycle;Signal;HPM_P1;HPM_P2
2023/04/18 00:00:48;;;;;;;39.40;21.20;;;;;;;9.32;96.13;100942.09;110143;1276;22997;-54
2023/04/18 00:03:20;;;;;;;40.90;21.60;;;;;;;9.31;96.20;100939.15;110223;1274;22155;-54
2023/04/18 00:05:51;;;;;;;38.40;19.50;;;;;;;9.31;96.12;100941.17;110190;1271;22243;-58
2023/04/18 00:08:22;;;;;;;38.80;19.00;;;;;;;9.30;96.41;100939.05;110156;1276;22321;-54
2023/04/18 00:10:52;;;;;;;43.70;21.20;;;;;;;9.29;96.28;100941.10;110174;1270;22285;-54
2023/04/18 00:13:23;;;;;;;42.10;21.10;;;;;;;9.30;96.42;100938.04;110119;1269;22998;-56
2023/04/18 00:15:55;;;;;;;48.20;22.60;;;;;;;9.31;96.65;100936.40;110084;1274;22229;-56
2023/04/18 00:18:28;;;;;;;43.00;21.10;;;;;;;9.30;96.48;100936.34;110114;1273;22669;-53
2023/04/18 00:20:59;;;;;;;37.00;18.20;;;;;;;9.31;96.60;100936.98;110117;1264;22373;-56
2023/04/18 00:23:30;;;;;;;37.20;18.90;;;;;;;9.32;96.68;100936.69;110146;1273;22323;-56
2023/04/18 00:26:01;;;;;;;33.60;18.00;;;;;;;9.31;96.92;100943.34;110133;1273;22890;-53
2023/04/18 00:28:32;;;;;;;38.20;19.50;;;;;;;9.29;96.74;100941.86;110191;1267;22363;-56
2023/04/18 00:31:03;;;;;;;39.30;19.60;;;;;;;9.29;96.75;100940.20;110107;1273;22274;-54
2023/04/18 00:33:33;;;;;;;35.30;18.50;;;;;;;9.29;96.99;100940.29;110140;1274;23159;-55
2023/04/18 00:36:05;;;;;;;43.00;19.70;;;;;;;9.27;96.99;100941.14;110139;1272;23191;-55
2023/04/18 00:38:37;;;;;;;38.20;20.70;;;;;;;9.28;96.74;100937.55;110141;1278;22202;-59
2023/04/18 00:41:07;;;;;;;36.60;18.00;;;;;;;9.29;96.84;100940.45;110105;1273;23426;-55
2023/04/18 00:43:39;;;;;;;34.20;17.50;;;;;;;9.28;96.88;100939.66;110123;1273;22371;-56
2023/04/18 00:46:09;;;;;;;36.30;18.80;;;;;;;9.28;97.21;100936.20;106535;1278;22515;-57
2023/04/18 00:48:40;;;;;;;38.70;19.30;;;;;;;9.25;97.14;100936.23;106517;1274;22658;-55
2023/04/18 00:51:12;;;;;;;39.30;20.80;;;;;;;9.22;97.28;100936.48;106465;1263;22593;-54
2023/04/18 00:53:44;;;;;;;40.30;21.00;;;;;;;9.21;97.39;100934.76;106549;1278;22568;-58
2023/04/18 00:56:15;;;;;;;35.40;17.60;;;;;;;9.20;97.54;100934.65;106561;1279;22576;-55
2023/04/18 00:58:46;;;;;;;37.00;20.30;;;;;;;9.18;97.58;100926.77;110095;1270;23031;-55
2023/04/18 01:01:18;;;;;;;35.40;18.60;;;;;;;9.17;97.40;100926.55;110087;1268;22199;-59
2023/04/18 01:03:48;;;;;;;37.40;19.20;;;;;;;9.15;97.46;100922.98;110191;1266;22243;-57
2023/04/18 01:06:20;;;;;;;40.90;20.10;;;;;;;9.12;97.82;100924.65;110124;1267;22902;-54
2023/04/18 01:08:52;;;;;;;35.70;18.70;;;;;;;9.11;97.62;100924.86;110081;1273;23129;-58
2023/04/18 01:11:23;;;;;;;43.30;20.90;;;;;;;9.11;97.80;100925.73;107967;1279;22837;-54
2023/04/18 01:14:05;;;;;;;40.20;19.50;;;;;;;9.10;97.93;100924.91;106464;1271;22650;-53
2023/04/18 01:16:37;;;;;;;40.30;21.00;;;;;;;9.08;97.71;100922.84;110135;1273;22366;-56
2023/04/18 01:19:08;;;;;;;34.90;17.30;;;;;;;9.10;97.90;100926.58;110130;1273;22158;-57
2023/04/18 01:21:42;;;;;;;37.60;19.30;;;;;;;9.08;98.06;100925.45;110106;1267;22252;-56
2023/04/18 01:24:14;;;;;;;35.40;17.60;;;;;;;9.06;98.15;100928.08;110045;1271;22224;-57
2023/04/18 01:26:47;;;;;;;36.90;18.90;;;;;;;9.04;98.14;100925.98;110120;1278;22260;-56
2023/04/18 01:29:18;;;;;;;35.50;17.80;;;;;;;9.05;98.24;100926.30;110082;1273;22255;-54
2023/04/18 01:31:49;;;;;;;36.70;19.60;;;;;;;9.02;98.74;100927.89;110135;1263;22281;-56
2023/04/18 01:34:20;;;;;;;34.80;19.40;;;;;;;9.00;98.39;100924.21;110104;1273;22433;-58
2023/04/18 01:36:51;;;;;;;33.50;17.00;;;;;;;9.01;98.35;100925.95;110152;1267;22232;-56
2023/04/18 01:39:22;;;;;;;42.60;19.70;;;;;;;9.01;98.44;100921.48;110139;1273;22313;-57
2023/04/18 01:41:53;;;;;;;31.50;16.40;;;;;;;9.02;98.40;100919.13;110078;1263;22231;-57
2023/04/18 01:44:24;;;;;;;33.00;18.90;;;;;;;9.02;98.32;100920.90;110248;1277;22314;-57
2023/04/18 01:46:55;;;;;;;34.80;18.00;;;;;;;9.01;98.62;100919.42;108078;1273;25452;-55
2023/04/18 01:49:26;;;;;;;38.40;19.70;;;;;;;8.99;98.49;100920.75;110196;1272;22149;-55
2023/04/18 01:51:56;;;;;;;34.40;18.10;;;;;;;9.00;98.49;100918.40;110144;1275;23277;-55
2023/04/18 01:54:27;;;;;;;33.80;17.90;;;;;;;9.00;98.57;100921.19;110225;1267;22308;-53
2023/04/18 01:56:58;;;;;;;35.50;18.10;;;;;;;9.00;98.75;100919.79;110099;1271;22567;-56
2023/04/18 01:59:29;;;;;;;35.20;19.00;;;;;;;8.96;98.55;100920.60;110161;1273;22404;-54
2023/04/18 02:02:00;;;;;;;30.40;15.90;;;;;;;8.96;98.70;100918.92;110086;1273;23005;-57
2023/04/18 02:04:31;;;;;;;32.80;16.50;;;;;;;8.97;98.82;100918.76;110140;1272;23226;-53
2023/04/18 02:07:02;;;;;;;37.10;19.60;;;;;;;8.98;98.80;100921.60;110149;1273;22879;-55
2023/04/18 02:09:33;;;;;;;35.50;18.70;;;;;;;8.98;98.68;100917.30;110144;1267;22338;-57
2023/04/18 02:12:04;;;;;;;35.80;18.30;;;;;;;8.99;98.87;100918.85;110129;1271;22357;-55
2023/04/18 02:14:37;;;;;;;33.70;16.30;;;;;;;8.97;98.86;100917.39;110131;1278;22436;-55
2023/04/18 02:17:07;;;;;;;33.10;17.10;;;;;;;8.97;98.81;100915.81;107160;1267;25432;-54
2023/04/18 02:19:38;;;;;;;34.70;17.40;;;;;;;8.95;98.86;100914.99;106616;1271;25132;-54
2023/04/18 02:22:09;;;;;;;32.90;17.60;;;;;;;8.96;98.93;100918.56;106500;1260;26612;-53
2023/04/18 02:24:40;;;;;;;30.50;16.80;;;;;;;8.96;99.01;100916.54;106582;1278;24481;-53
2023/04/18 02:27:11;;;;;;;31.00;15.80;;;;;;;8.95;98.89;100918.48;106609;1270;22739;-57
2023/04/18 02:29:42;;;;;;;40.20;20.00;;;;;;;8.93;99.20;100916.74;110152;1272;22200;-55
2023/04/18 02:32:13;;;;;;;30.70;16.70;;;;;;;8.92;99.27;100918.52;110114;1264;23037;-56
2023/04/18 02:34:44;;;;;;;33.00;17.00;;;;;;;8.91;99.53;100915.14;110237;1273;22325;-58
2023/04/18 02:37:15;;;;;;;33.20;16.40;;;;;;;8.90;99.40;100917.33;110209;1267;22947;-53
2023/04/18 02:39:45;;;;;;;32.70;16.90;;;;;;;8.89;99.55;100916.02;110249;1270;22196;-57
2023/04/18 02:42:16;;;;;;;29.80;15.20;;;;;;;8.88;99.51;100917.57;110203;1264;23091;-54
2023/04/18 02:44:47;;;;;;;28.00;13.50;;;;;;;8.90;99.51;100921.01;110178;1275;23072;-54
2023/04/18 02:47:18;;;;;;;31.00;16.20;;;;;;;8.90;99.55;100922.59;110157;1276;22248;-56
2023/04/18 02:49:49;;;;;;;31.00;16.00;;;;;;;8.89;99.40;100922.71;110144;1267;22368;-53
2023/04/18 02:52:20;;;;;;;33.50;15.30;;;;;;;8.88;99.45;100923.29;110173;1267;22953;-55
2023/04/18 02:54:51;;;;;;;33.70;16.20;;;;;;;8.88;99.30;100926.39;110083;1264;22125;-53
2023/04/18 02:57:22;;;;;;;38.70;16.60;;;;;;;8.88;99.52;100925.66;110130;1267;22230;-54
2023/04/18 02:59:52;;;;;;;27.20;13.70;;;;;;;8.88;99.55;100922.89;110135;1263;22217;-54
2023/04/18 03:02:23;;;;;;;29.00;15.10;;;;;;;8.89;99.49;100923.23;110103;1264;22257;-55
2023/04/18 03:04:55;;;;;;;27.90;14.70;;;;;;;8.89;99.41;100926.67;110135;1269;22126;-56
2023/04/18 03:07:26;;;;;;;26.80;13.70;;;;;;;8.90;99.33;100927.73;110087;1275;22169;-53
2023/04/18 03:09:57;;;;;;;30.10;14.20;;;;;;;8.92;99.45;100927.92;110174;1266;22158;-56
2023/04/18 03:12:28;;;;;;;27.10;14.40;;;;;;;8.93;99.45;100924.60;110123;1272;22905;-54
2023/04/18 03:14:59;;;;;;;26.10;13.10;;;;;;;8.95;99.32;100926.63;110108;1264;22341;-56
2023/04/18 03:17:30;;;;;;;27.70;13.80;;;;;;;8.95;99.52;100924.06;110191;1277;22227;-54
2023/04/18 03:20:00;;;;;;;29.40;14.30;;;;;;;8.94;99.50;100925.71;110112;1273;22308;-57
2023/04/18 03:22:31;;;;;;;30.80;14.00;;;;;;;8.93;99.39;100928.05;110135;1273;22312;-57
2023/04/18 03:25:02;;;;;;;26.70;13.20;;;;;;;8.93;99.47;100927.38;110131;1267;22229;-55
2023/04/18 03:27:33;;;;;;;27.40;14.30;;;;;;;8.95;99.42;100924.64;110150;1273;22387;-55
2023/04/18 03:30:04;;;;;;;29.70;14.10;;;;;;;8.94;99.50;100919.71;110155;1264;22362;-56
2023/04/18 03:32:35;;;;;;;27.90;14.30;;;;;;;8.94;99.44;100923.92;110147;1278;22318;-56
2023/04/18 03:35:07;;;;;;;28.10;13.60;;;;;;;8.94;99.46;100924.58;110144;1266;23422;-57
2023/04/18 03:37:38;;;;;;;24.40;12.70;;;;;;;8.94;99.42;100922.44;110120;1270;22265;-57
2023/04/18 03:40:10;;;;;;;25.50;13.80;;;;;;;8.94;99.51;100922.98;110174;1274;22156;-57
2023/04/18 03:42:41;;;;;;;27.70;14.40;;;;;;;8.95;99.51;100921.52;110216;1263;22186;-58
2023/04/18 03:45:13;;;;;;;32.20;15.90;;;;;;;8.96;99.50;100919.10;110221;1272;22191;-57
2023/04/18 03:47:43;;;;;;;37.50;15.20;;;;;;;8.98;99.49;100922.96;110155;1278;22214;-58
2023/04/18 03:50:15;;;;;;;28.50;13.90;;;;;;;8.98;99.46;100928.71;110109;1272;22624;-58
2023/04/18 03:52:46;;;;;;;31.50;14.80;;;;;;;8.98;99.34;100927.45;110122;1264;23040;-58
2023/04/18 03:55:17;;;;;;;31.70;16.00;;;;;;;8.98;99.37;100927.94;110122;1267;22152;-59
2023/04/18 03:57:47;;;;;;;30.50;16.30;;;;;;;8.97;99.39;100930.29;110231;1273;23161;-56
2023/04/18 04:00:19;;;;;;;28.60;13.60;;;;;;;8.97;99.41;100926.80;110212;1270;22970;-60
2023/04/18 04:02:50;;;;;;;28.80;16.40;;;;;;;8.98;99.32;100929.39;108363;1271;22520;-56
2023/04/18 04:05:21;;;;;;;28.50;15.80;;;;;;;8.99;99.40;100931.02;106279;1278;22537;-54
2023/04/18 04:07:52;;;;;;;34.70;15.60;;;;;;;8.99;99.45;100936.84;106365;1273;25294;-54
2023/04/18 04:10:23;;;;;;;36.50;17.10;;;;;;;8.98;99.46;100932.34;106360;1255;24358;-57
2023/04/18 04:12:54;;;;;;;35.80;16.90;;;;;;;8.96;99.39;100935.00;110093;1273;22229;-58
2023/04/18 04:15:25;;;;;;;31.10;16.20;;;;;;;8.96;99.54;100938.91;110117;1263;22336;-59
2023/04/18 04:17:55;;;;;;;30.60;16.30;;;;;;;8.97;99.41;100943.75;110081;1263;22306;-57
2023/04/18 04:20:26;;;;;;;35.30;16.70;;;;;;;8.96;99.36;100942.90;110229;1277;22330;-56
2023/04/18 04:22:58;;;;;;;32.50;16.20;;;;;;;8.95;99.30;100946.61;110197;1270;22807;-58
2023/04/18 04:25:29;;;;;;;40.30;17.50;;;;;;;8.94;99.38;100950.04;110161;1262;22279;-57
2023/04/18 04:28:01;;;;;;;30.70;15.10;;;;;;;8.92;99.50;100951.08;110136;1270;22237;-56
2023/04/18 04:30:32;;;;;;;35.50;17.20;;;;;;;8.90;99.41;100953.04;110127;1264;22327;-58
2023/04/18 04:33:05;;;;;;;38.20;18.20;;;;;;;8.91;99.41;100949.42;110092;1270;22183;-57
2023/04/18 04:35:36;;;;;;;35.60;18.10;;;;;;;8.92;99.35;100951.53;110217;1264;22375;-57
2023/04/18 04:38:07;;;;;;;36.60;17.40;;;;;;;8.94;99.38;100952.98;108440;1266;24512;-57
2023/04/18 04:40:38;;;;;;;36.30;16.80;;;;;;;8.94;99.35;100952.57;106281;1270;25438;-57
2023/04/18 04:43:11;;;;;;;36.30;17.70;;;;;;;8.94;99.30;100959.66;106387;1263;22533;-64
2023/04/18 04:45:43;;;;;;;35.70;17.40;;;;;;;8.93;99.35;100963.68;110165;1273;22221;-57
2023/04/18 04:48:14;;;;;;;36.70;18.60;;;;;;;8.94;99.18;100964.45;110178;1263;22319;-63
2023/04/18 04:50:56;;;;;;;35.70;18.40;;;;;;;8.95;99.31;100967.50;110192;1270;22230;-59
2023/04/18 04:53:30;;;;;;;35.70;17.00;;;;;;;8.94;99.51;100960.93;110154;1274;22192;-58
2023/04/18 04:56:01;;;;;;;33.00;16.20;;;;;;;8.93;99.27;100962.60;110227;1270;22192;-58
2023/04/18 04:58:32;;;;;;;33.70;16.80;;;;;;;8.90;99.39;100964.48;110207;1270;22178;-59
2023/04/18 05:01:02;;;;;;;35.30;16.80;;;;;;;8.92;99.57;100968.33;110186;1264;22167;-60
2023/04/18 05:03:35;;;;;;;32.60;16.60;;;;;;;8.91;99.53;100968.45;110155;1270;23045;-59
2023/04/18 05:06:06;;;;;;;34.90;16.90;;;;;;;8.89;99.52;100968.45;110205;1264;23195;-58
2023/04/18 05:08:37;;;;;;;33.50;16.20;;;;;;;8.90;99.45;100971.81;110146;1278;22986;-55
2023/04/18 05:11:08;;;;;;;37.60;16.10;;;;;;;8.92;99.49;100975.09;110175;1273;22210;-60
2023/04/18 05:13:39;;;;;;;33.60;16.70;;;;;;;8.93;99.32;100977.85;110163;1270;22494;-58
2023/04/18 05:16:10;;;;;;;32.50;15.40;;;;;;;8.93;99.53;100978.48;110199;1270;22187;-58
2023/04/18 05:18:41;;;;;;;30.40;15.70;;;;;;;8.92;99.44;100976.70;110225;1271;22476;-61
2023/04/18 05:21:12;;;;;;;28.50;14.10;;;;;;;8.89;99.50;100974.56;110186;1271;22242;-57
2023/04/18 05:23:42;;;;;;;30.60;15.30;;;;;;;8.87;99.26;100978.59;110145;1278;22299;-58
2023/04/18 05:26:13;;;;;;;29.10;14.60;;;;;;;8.87;99.57;100977.18;110123;1273;23355;-59
2023/04/18 05:28:44;;;;;;;29.00;13.00;;;;;;;8.87;99.61;100981.48;110106;1273;23122;-60
2023/04/18 05:31:15;;;;;;;29.00;13.30;;;;;;;8.86;99.60;100981.18;110180;1270;22172;-58
2023/04/18 05:33:46;;;;;;;29.50;12.80;;;;;;;8.87;99.71;100986.73;110165;1271;22194;-57
2023/04/18 05:36:17;;;;;;;28.20;13.70;;;;;;;8.89;99.72;100989.53;110171;1271;22226;-59
2023/04/18 05:38:48;;;;;;;30.60;13.40;;;;;;;8.90;99.79;100990.60;110187;1278;22194;-58
2023/04/18 05:41:18;;;;;;;30.60;16.00;;;;;;;8.92;99.74;100992.69;110126;1270;22236;-60
2023/04/18 05:43:49;;;;;;;30.90;14.60;;;;;;;8.94;99.80;100992.85;110148;1270;22395;-59
2023/04/18 05:46:20;;;;;;;30.60;15.40;;;;;;;8.94;99.83;100994.91;110163;1270;22441;-58
2023/04/18 05:48:51;;;;;;;28.10;13.40;;;;;;;8.94;99.88;100996.27;110120;1271;22354;-57
2023/04/18 05:51:22;;;;;;;30.20;14.90;;;;;;;8.93;99.88;100990.98;110176;1270;22121;-58
2023/04/18 05:53:53;;;;;;;35.70;15.60;;;;;;;8.92;99.82;100989.02;110197;1271;22316;-58
2023/04/18 05:56:24;;;;;;;33.50;15.40;;;;;;;8.91;99.87;100990.64;110138;1278;22147;-57
2023/04/18 05:58:54;;;;;;;29.90;15.10;;;;;;;8.92;99.94;100991.23;110155;1270;22262;-58
2023/04/18 06:01:26;;;;;;;29.00;14.80;;;;;;;8.92;100.00;100992.83;110174;1270;22378;-58
2023/04/18 06:03:57;;;;;;;35.00;14.60;;;;;;;8.92;99.94;100991.98;110206;1276;22986;-58
2023/04/18 06:06:28;;;;;;;29.00;14.10;;;;;;;8.95;99.98;100995.52;110144;1270;22224;-59
2023/04/18 06:08:59;;;;;;;28.00;14.20;;;;;;;8.96;99.97;100999.78;110157;1270;22369;-62
2023/04/18 06:11:32;;;;;;;29.90;13.90;;;;;;;8.95;99.98;100996.00;110164;1278;22397;-58
2023/04/18 06:14:03;;;;;;;34.40;14.70;;;;;;;8.94;99.98;100995.86;110161;1270;22408;-57
2023/04/18 06:16:35;;;;;;;31.70;14.90;;;;;;;8.93;100.00;101001.31;110175;1271;22837;-57
2023/04/18 06:19:06;;;;;;;31.60;14.60;;;;;;;8.96;100.00;101001.94;110172;1276;22999;-58
2023/04/18 06:21:38;;;;;;;33.20;15.30;;;;;;;8.97;100.00;101002.69;110170;1270;22925;-58
2023/04/18 06:24:09;;;;;;;31.00;14.10;;;;;;;8.98;100.00;101000.16;110177;1264;22177;-58
2023/04/18 06:26:40;;;;;;;34.20;14.20;;;;;;;9.00;100.00;101005.70;110163;1271;22209;-58
2023/04/18 06:29:11;;;;;;;31.10;15.60;;;;;;;9.03;100.00;101010.95;110128;1263;22196;-58
2023/04/18 06:31:44;;;;;;;39.20;16.10;;;;;;;9.05;100.00;101011.41;110132;1270;22198;-58
2023/04/18 06:34:15;;;;;;;32.50;13.30;;;;;;;9.08;100.00;101012.73;110136;1264;22183;-58
2023/04/18 06:36:46;;;;;;;33.40;14.70;;;;;;;9.09;100.00;101017.35;110129;1276;22988;-58
2023/04/18 06:39:17;;;;;;;30.50;13.10;;;;;;;9.12;100.00;101018.59;110173;1264;22972;-58
2023/04/18 06:41:49;;;;;;;29.90;14.90;;;;;;;9.14;100.00;101019.80;110166;1271;22186;-60
2023/04/18 06:44:20;;;;;;;30.50;15.10;;;;;;;9.17;100.00;101025.25;110196;1271;22177;-57
2023/04/18 06:46:51;;;;;;;31.40;14.90;;;;;;;9.19;100.00;101025.66;110151;1271;22223;-59
2023/04/18 06:49:22;;;;;;;32.00;14.50;;;;;;;9.19;100.00;101031.95;110178;1272;22951;-57
2023/04/18 06:51:53;;;;;;;31.50;15.60;;;;;;;9.19;100.00;101032.36;110113;1276;22365;-62
2023/04/18 06:54:24;;;;;;;37.80;17.40;;;;;;;9.20;100.00;101034.29;110165;1278;23514;-58
2023/04/18 06:56:56;;;;;;;44.60;21.50;;;;;;;9.22;100.00;101034.95;110120;1271;22326;-58
2023/04/18 06:59:27;;;;;;;36.20;19.90;;;;;;;9.24;100.00;101037.91;110160;1274;22253;-58
2023/04/18 07:01:57;;;;;;;34.10;15.70;;;;;;;9.26;100.00;101040.00;110160;1278;22972;-59
2023/04/18 07:04:28;;;;;;;32.30;15.60;;;;;;;9.29;100.00;101041.78;110155;1273;22177;-60
2023/04/18 07:07:00;;;;;;;34.30;14.80;;;;;;;9.31;100.00;101040.21;110177;1275;22244;-58
2023/04/18 07:09:31;;;;;;;31.50;13.20;;;;;;;9.32;100.00;101043.54;110184;1270;22414;-58
2023/04/18 07:12:02;;;;;;;26.60;11.30;;;;;;;9.32;100.00;101036.33;110182;1270;22533;-58
2023/04/18 07:14:33;;;;;;;25.00;10.90;;;;;;;9.34;100.00;101034.35;110163;1278;22409;-58
2023/04/18 07:17:03;;;;;;;29.30;12.10;;;;;;;9.38;100.00;101036.93;110182;1273;22222;-58
2023/04/18 07:19:34;;;;;;;26.10;11.30;;;;;;;9.41;100.00;101037.61;110168;1271;23410;-58
2023/04/18 07:22:05;;;;;;;30.20;11.10;;;;;;;9.46;100.00;101037.05;110138;1271;22195;-59
2023/04/18 07:24:38;;;;;;;24.50;11.30;;;;;;;9.52;100.00;101036.98;110167;1274;22322;-59
2023/04/18 07:27:09;;;;;;;25.30;11.50;;;;;;;9.56;100.00;101039.39;110147;1271;23050;-59
2023/04/18 07:29:40;;;;;;;23.70;9.70;;;;;;;9.60;100.00;101041.88;110163;1278;22909;-60
2023/04/18 07:32:11;;;;;;;27.80;13.10;;;;;;;9.62;100.00;101049.36;108316;1263;22752;-58
2023/04/18 07:34:42;;;;;;;29.30;12.40;;;;;;;9.64;100.00;101047.40;106525;1264;25436;-58
2023/04/18 07:37:13;;;;;;;28.90;11.70;;;;;;;9.65;99.99;101051.40;106458;1273;22656;-57
2023/04/18 07:39:44;;;;;;;30.70;12.90;;;;;;;9.66;99.98;101048.89;110174;1274;22255;-59
2023/04/18 07:42:15;;;;;;;26.90;11.50;;;;;;;9.69;100.00;101050.07;110139;1271;22182;-58
2023/04/18 07:44:48;;;;;;;26.80;11.50;;;;;;;9.73;100.00;101051.67;110175;1278;23075;-59
2023/04/18 07:47:19;;;;;;;26.50;11.00;;;;;;;9.76;100.00;101054.73;110178;1278;22407;-57
2023/04/18 07:49:50;;;;;;;32.30;12.90;;;;;;;9.78;99.89;101059.52;110146;1274;22878;-60
2023/04/18 07:52:21;;;;;;;24.20;11.00;;;;;;;9.79;99.80;101059.56;110154;1264;22271;-59
2023/04/18 07:54:52;;;;;;;25.20;10.50;;;;;;;9.82;99.90;101061.93;110064;1274;22130;-58
2023/04/18 07:57:23;;;;;;;29.90;12.50;;;;;;;9.85;99.62;101063.13;110166;1260;23028;-58
2023/04/18 07:59:54;;;;;;;31.40;13.10;;;;;;;9.87;99.59;101068.69;109825;1264;25278;-59
2023/04/18 08:02:25;;;;;;;27.00;12.00;;;;;;;9.90;99.77;101066.45;110140;1278;22126;-60
2023/04/18 08:04:56;;;;;;;24.60;9.80;;;;;;;9.91;99.65;101064.25;110146;1273;22152;-59
2023/04/18 08:07:27;;;;;;;25.00;11.30;;;;;;;9.93;99.64;101069.91;110124;1273;22192;-58
2023/04/18 08:09:58;;;;;;;26.70;11.50;;;;;;;9.96;99.42;101070.92;110137;1274;22207;-60
2023/04/18 08:12:29;;;;;;;22.90;9.90;;;;;;;9.98;99.47;101071.23;110201;1277;22205;-59
2023/04/18 08:15:00;;;;;;;25.00;10.30;;;;;;;10.02;99.38;101079.70;110152;1278;22230;-58
2023/04/18 08:17:31;;;;;;;23.00;9.70;;;;;;;10.03;99.21;101075.09;110185;1264;22959;-59
2023/04/18 08:20:06;;;;;;;25.10;9.90;;;;;;;10.04;99.00;101085.02;110156;1273;22185;-58
2023/04/18 08:22:37;;;;;;;23.40;9.90;;;;;;;10.06;99.02;101081.95;110120;1267;22290;-60
2023/04/18 08:25:09;;;;;;;21.90;9.60;;;;;;;10.07;99.24;101081.09;110151;1274;22142;-59
2023/04/18 08:27:40;;;;;;;28.10;11.00;;;;;;;10.10;98.97;101079.40;110188;1273;22143;-59
2023/04/18 08:30:12;;;;;;;22.20;9.30;;;;;;;10.13;99.08;101084.88;110164;1271;22208;-58
2023/04/18 08:32:43;;;;;;;27.40;11.70;;;;;;;10.14;98.66;101089.33;110166;1264;22393;-60
2023/04/18 08:35:14;;;;;;;28.00;11.50;;;;;;;10.16;98.90;101090.48;110150;1259;23085;-59
2023/04/18 08:37:45;;;;;;;22.80;9.60;;;;;;;10.20;99.07;101094.98;110156;1270;22218;-58
2023/04/18 08:40:17;;;;;;;24.40;10.20;;;;;;;10.23;98.56;101094.95;110158;1275;22895;-60
2023/04/18 08:42:49;;;;;;;28.80;11.50;;;;;;;10.21;98.31;101095.91;110130;1274;22470;-60
2023/04/18 08:45:21;;;;;;;24.20;9.60;;;;;;;10.22;98.71;101095.05;110181;1279;22440;-60
2023/04/18 08:47:52;;;;;;;22.80;11.20;;;;;;;10.25;98.61;101100.88;110174;1267;22327;-60
2023/04/18 08:50:23;;;;;;;31.60;13.90;;;;;;;10.26;98.36;101098.23;110183;1279;22169;-59
2023/04/18 08:52:56;;;;;;;37.00;20.60;;;;;;;10.29;98.50;101094.34;110128;1277;22217;-58
2023/04/18 08:55:26;;;;;;;33.30;17.80;;;;;;;10.30;98.41;101095.16;110109;1273;22182;-60
2023/04/18 08:57:58;;;;;;;28.30;13.30;;;;;;;10.34;98.63;101095.70;110143;1274;22293;-59
2023/04/18 09:00:29;;;;;;;28.10;12.50;;;;;;;10.37;98.48;101097.03;110180;1271;22181;-59
2023/04/18 09:03:02;;;;;;;29.10;13.10;;;;;;;10.40;98.15;101097.73;110153;1271;23126;-58
2023/04/18 09:05:34;;;;;;;28.40;12.00;;;;;;;10.44;98.27;101099.89;110180;1278;23230;-58
2023/04/18 09:08:24;;;;;;;24.60;11.00;;;;;;;10.48;98.31;101099.33;110133;1267;23061;-58
2023/04/18 09:10:55;;;;;;;22.80;9.20;;;;;;;10.50;97.84;101094.38;110174;1267;22299;-58
2023/04/18 09:16:46;;;;;;;24.40;11.80;;;;;;;10.60;97.65;101095.12;102673;1315;545375;-58
2023/04/18 09:19:18;;;;;;;26.50;10.60;;;;;;;10.59;96.88;101093.79;109287;1286;22189;-58
2023/04/18 09:21:59;;;;;;;25.30;10.80;;;;;;;10.60;96.86;101093.59;109282;1286;22174;-58
2023/04/18 09:24:31;;;;;;;26.80;10.70;;;;;;;10.63;97.11;101088.77;109294;1282;22896;-58
2023/04/18 09:27:03;;;;;;;31.00;11.50;;;;;;;10.68;97.21;101089.61;109277;1286;22341;-58
2023/04/18 09:29:46;;;;;;;25.50;10.70;;;;;;;10.73;97.14;101091.70;105247;1290;5391022;-58
2023/04/18 09:32:25;;;;;;;27.30;10.60;;;;;;;10.78;96.73;101093.52;109483;1290;22172;-59
2023/04/18 09:35:00;;;;;;;27.80;11.00;;;;;;;10.79;96.25;101091.63;109857;1277;22277;-58
2023/04/18 09:37:31;;;;;;;24.30;10.40;;;;;;;10.81;96.31;101096.26;109866;1270;22339;-58
2023/04/18 09:40:22;;;;;;;25.10;10.70;;;;;;;10.83;96.34;101095.80;109869;1272;23137;-58
2023/04/18 09:42:54;;;;;;;33.00;13.80;;;;;;;10.85;96.23;101098.48;109817;1277;22172;-58
2023/04/18 09:45:26;;;;;;;25.30;10.90;;;;;;;10.89;96.23;101096.48;109859;1283;22137;-59
2023/04/18 09:47:57;;;;;;;25.60;10.20;;;;;;;10.94;96.10;101096.86;109874;1277;22376;-59
2023/04/18 09:50:28;;;;;;;26.50;11.10;;;;;;;10.97;95.88;101092.03;109883;1274;22393;-58
2023/04/18 09:53:00;;;;;;;25.00;11.40;;;;;;;11.00;96.00;101095.39;109867;1276;22176;-59
2023/04/18 09:55:32;;;;;;;24.80;10.50;;;;;;;11.06;96.07;101094.85;109895;1276;23206;-57
2023/04/18 09:58:07;;;;;;;26.90;12.00;;;;;;;11.11;96.01;101098.29;109917;1276;22307;-58
2023/04/18 10:00:39;;;;;;;30.30;12.40;;;;;;;11.18;95.82;101098.98;109893;1267;22208;-58
2023/04/18 10:03:13;;;;;;;25.80;12.10;;;;;;;11.20;95.59;101097.03;109894;1276;22983;-59
2023/04/18 10:05:46;;;;;;;28.10;13.20;;;;;;;11.20;95.07;101103.27;109905;1277;22700;-58
2023/04/18 10:08:18;;;;;;;34.80;15.20;;;;;;;11.14;94.76;101103.06;109901;1282;22379;-56
2023/04/18 10:10:49;;;;;;;28.40;13.30;;;;;;;11.11;95.08;101099.12;109892;1276;22177;-58
2023/04/18 10:13:21;;;;;;;28.70;13.60;;;;;;;11.10;94.99;101096.85;109906;1279;22188;-59
2023/04/18 10:15:52;;;;;;;26.20;12.80;;;;;;;11.07;95.07;101091.60;109894;1279;22211;-59
2023/04/18 10:18:25;;;;;;;25.30;13.10;;;;;;;11.05;95.16;101094.64;109879;1277;22186;-58
2023/04/18 10:21:03;;;;;;;32.50;16.10;;;;;;;11.05;95.45;101092.55;109866;1276;22437;-58
2023/04/18 10:23:38;;;;;;;35.70;14.00;;;;;;;11.07;95.42;101090.48;109894;1282;22203;-58
2023/04/18 10:26:10;;;;;;;26.30;12.40;;;;;;;11.08;95.19;101089.16;109884;1267;22829;-59
2023/04/18 10:28:53;;;;;;;29.60;14.60;;;;;;;11.09;94.83;101091.00;109869;1276;23101;-57
2023/04/18 10:31:25;;;;;;;30.30;14.30;;;;;;;11.12;94.69;101093.32;109883;1276;22289;-57
2023/04/18 10:33:57;;;;;;;30.40;15.50;;;;;;;11.16;94.86;101089.52;109888;1276;22188;-59
2023/04/18 10:36:28;;;;;;;27.90;12.90;;;;;;;11.22;94.73;101087.46;109889;1267;22198;-58
2023/04/18 10:39:03;;;;;;;27.90;13.10;;;;;;;11.29;94.62;101077.51;109873;1270;22298;-58
2023/04/18 10:41:37;;;;;;;27.20;11.60;;;;;;;11.39;94.75;101075.40;109898;1283;22182;-58
2023/04/18 10:44:17;;;;;;;27.10;12.60;;;;;;;11.49;94.85;101078.90;109874;1280;22270;-58
2023/04/18 10:47:24;;;;;;;26.70;13.30;;;;;;;11.59;94.34;101075.63;109887;1276;22403;-59
2023/04/18 10:50:02;;;;;;;27.30;12.80;;;;;;;11.71;93.47;101073.77;109895;1277;23037;-60
2023/04/18 10:52:33;;;;;;;27.60;13.10;;;;;;;11.79;93.13;101075.80;109880;1276;22558;-58
2023/04/18 10:55:11;;;;;;;28.20;11.60;;;;;;;11.85;92.58;101076.08;109875;1276;22275;-59
2023/04/18 10:57:43;;;;;;;25.50;11.60;;;;;;;11.91;92.56;101071.10;109898;1275;22185;-57
2023/04/18 11:00:16;;;;;;;23.20;11.70;;;;;;;11.99;92.52;101070.69;109874;1276;22253;-58
2023/04/18 11:02:56;;;;;;;25.50;12.10;;;;;;;12.08;92.38;101068.91;109929;1282;22221;-58
2023/04/18 11:05:29;;;;;;;30.70;12.80;;;;;;;12.16;92.29;101068.05;109850;1275;22393;-58
2023/04/18 11:07:59;;;;;;;28.90;13.60;;;;;;;12.24;91.77;101069.86;109897;1270;22280;-58
2023/04/18 11:10:31;;;;;;;24.70;10.90;;;;;;;12.27;91.33;101071.13;109891;1268;22303;-57
2023/04/18 11:13:05;;;;;;;28.20;12.30;;;;;;;12.30;91.06;101073.52;109902;1276;22728;-59
2023/04/18 11:15:38;;;;;;;26.40;12.30;;;;;;;12.28;90.76;101071.66;109869;1271;22862;-59
2023/04/18 11:18:10;;;;;;;28.20;13.60;;;;;;;12.30;90.78;101071.74;109894;1267;22188;-58
2023/04/18 11:20:49;;;;;;;27.50;12.40;;;;;;;12.35;91.15;101065.52;109904;1276;22896;-57
2023/04/18 11:23:23;;;;;;;26.80;11.70;;;;;;;12.41;90.45;101066.41;109879;1277;22236;-57
2023/04/18 11:25:57;;;;;;;31.30;13.60;;;;;;;12.44;90.77;101066.56;109867;1277;22283;-60
2023/04/18 11:28:28;;;;;;;28.60;13.40;;;;;;;12.51;90.97;101065.30;109874;1275;22209;-57
2023/04/18 11:31:01;;;;;;;25.50;12.40;;;;;;;12.59;90.80;101065.23;109863;1277;22124;-59